Time;durP1;ratioP1;P1;durP2;ratioP2;P2;SDS_P1;SDS_P2;PMS_P1;PMS_P2;Temp;Humidity;BMP_temperature;BMP_pressure;BME280_temperature;BME280_humidity;BME280_pressure;Samples;Min_cycle;Max_cycle;Signal;HPM_P1;HPM_P2
2022/11/01 00:02:34;;;;;;;0.33;0.33;;;13.80;99.90;;;;;;5052538;28;20201;-67
2022/11/01 00:05:22;;;;;;;0.40;0.40;;;13.70;99.90;;;;;;5052604;28;20207;-67
2022/11/01 00:08:10;;;;;;;1.03;1.03;;;13.80;99.90;;;;;;5052738;28;20200;-67
2022/11/01 00:11:02;;;;;;;0.40;0.40;;;13.80;99.90;;;;;;5051626;28;20454;-66
2022/11/01 00:13:51;;;;;;;0.40;0.40;;;13.80;99.90;;;;;;5052181;28;20463;-67
2022/11/01 00:16:40;;;;;;;0.40;0.40;;;13.70;99.90;;;;;;5052091;28;20494;-66
2022/11/01 00:19:28;;;;;;;0.40;0.40;;;13.70;99.90;;;;;;5052450;28;20205;-67
2022/11/01 00:22:16;;;;;;;0.40;0.40;;;13.70;99.90;;;;;;5051285;28;20634;-66
2022/11/01 00:25:05;;;;;;;0.40;0.40;;;13.70;99.90;;;;;;5053467;28;20335;-67
2022/11/01 00:27:53;;;;;;;0.40;0.40;;;13.70;99.90;;;;;;5054062;28;20487;-67
2022/11/01 00:30:42;;;;;;;0.30;0.30;;;13.60;99.90;;;;;;5054646;28;20229;-67
2022/11/01 00:33:30;;;;;;;0.40;0.40;;;13.60;99.90;;;;;;5054762;28;20677;-67
2022/11/01 00:36:18;;;;;;;0.40;0.40;;;13.60;99.90;;;;;;5052091;28;20791;-67
2022/11/01 00:39:06;;;;;;;0.40;0.40;;;13.60;99.90;;;;;;5053615;28;20528;-66
2022/11/01 00:41:54;;;;;;;0.40;0.40;;;13.50;99.90;;;;;;5052286;28;20529;-66
2022/11/01 00:44:42;;;;;;;0.30;0.30;;;13.50;99.90;;;;;;5053266;28;20284;-66
2022/11/01 00:47:32;;;;;;;0.40;0.40;;;13.50;99.90;;;;;;5051777;28;20994;-67
2022/11/01 00:50:20;;;;;;;0.43;0.43;;;13.40;99.90;;;;;;5053173;28;20271;-68
2022/11/01 00:53:11;;;;;;;0.30;0.30;;;13.50;99.90;;;;;;5052362;28;20542;-66
2022/11/01 00:56:02;;;;;;;0.40;0.40;;;13.40;99.90;;;;;;5053201;28;20926;-67
2022/11/01 00:58:50;;;;;;;1.03;1.03;;;13.40;99.90;;;;;;5052469;28;20275;-66
2022/11/01 01:01:38;;;;;;;0.40;0.40;;;13.50;99.90;;;;;;5051796;28;20526;-66
2022/11/01 01:04:28;;;;;;;1.37;1.37;;;13.50;99.90;;;;;;5052980;28;20554;-66
2022/11/01 01:07:17;;;;;;;0.40;0.40;;;13.40;99.90;;;;;;5052062;28;20259;-66
2022/11/01 01:10:06;;;;;;;0.30;0.30;;;13.40;99.90;;;;;;5051363;28;20548;-66
2022/11/01 01:12:54;;;;;;;0.40;0.40;;;13.40;99.90;;;;;;5056514;28;20872;-66
2022/11/01 01:15:42;;;;;;;0.40;0.40;;;13.40;99.90;;;;;;5056177;28;20486;-66
2022/11/01 01:18:30;;;;;;;0.40;0.40;;;13.10;99.90;;;;;;5057586;28;20197;-66
2022/11/01 01:21:20;;;;;;;0.40;0.40;;;13.20;99.90;;;;;;5055533;28;20510;-66
2022/11/01 01:24:08;;;;;;;0.40;0.40;;;13.40;99.90;;;;;;5056182;28;20284;-66
2022/11/01 01:26:56;;;;;;;0.40;0.40;;;13.40;99.90;;;;;;5055509;28;21091;-66
2022/11/01 01:29:44;;;;;;;0.40;0.40;;;13.30;99.90;;;;;;5054934;28;20520;-66
2022/11/01 01:32:32;;;;;;;0.40;0.40;;;13.30;99.90;;;;;;5055425;28;21043;-66
2022/11/01 01:35:20;;;;;;;0.40;0.40;;;13.70;99.90;;;;;;5055543;28;20424;-66
2022/11/01 01:38:10;;;;;;;0.40;0.40;;;13.30;99.90;;;;;;5055311;28;20870;-66
2022/11/01 01:41:54;;;;;;;0.40;0.40;;;13.30;99.90;;;;;;5056043;28;20531;-66
2022/11/01 01:44:40;;;;;;;0.60;0.60;;;13.30;99.90;;;;;;5056242;28;20424;-66
2022/11/01 01:47:30;;;;;;;0.60;0.60;;;13.30;99.90;;;;;;5055641;28;20415;-67
2022/11/01 01:50:24;;;;;;;0.40;0.40;;;13.20;99.90;;;;;;5054934;28;20538;-66
2022/11/01 01:53:19;;;;;;;0.40;0.40;;;13.20;99.90;;;;;;5055195;28;20996;-66
2022/11/01 01:56:10;;;;;;;0.40;0.40;;;13.20;99.90;;;;;;5055587;28;20460;-66
2022/11/01 01:59:03;;;;;;;0.40;0.40;;;13.20;99.90;;;;;;5056121;28;20920;-66
2022/11/01 02:01:51;;;;;;;0.40;0.40;;;13.20;99.90;;;;;;5054670;28;21045;-66
2022/11/01 02:04:43;;;;;;;0.40;0.40;;;13.20;99.90;;;;;;5055851;28;20498;-67
2022/11/01 02:07:31;;;;;;;0.30;0.30;;;13.20;99.90;;;;;;5076724;28;20424;-67
2022/11/01 02:10:21;;;;;;;0.40;0.40;;;13.20;99.90;;;;;;5075832;28;20523;-67
2022/11/01 02:13:13;;;;;;;0.40;0.40;;;13.20;99.90;;;;;;5076496;28;20452;-67
2022/11/01 02:16:46;;;;;;;0.40;0.40;;;13.20;99.90;;;;;;5074534;28;20463;-67
2022/11/01 02:20:07;;;;;;;0.40;0.40;;;13.20;99.90;;;;;;5066362;28;20531;-67
2022/11/01 02:23:17;;;;;;;0.40;0.40;;;13.20;99.90;;;;;;5072650;28;20503;-67
2022/11/01 02:26:41;;;;;;;0.40;0.40;;;13.20;99.90;;;;;;5073957;28;20426;-67
2022/11/01 02:29:50;;;;;;;0.40;0.40;;;13.10;99.90;;;;;;5073195;28;20454;-67
2022/11/01 02:32:51;;;;;;;0.40;0.40;;;13.10;99.90;;;;;;5071280;28;20691;-67
2022/11/01 02:35:45;;;;;;;0.40;0.40;;;13.20;99.90;;;;;;5061950;28;20421;-67
2022/11/01 02:38:37;;;;;;;0.40;0.40;;;13.20;99.90;;;;;;5059329;28;20454;-66
2022/11/01 02:41:31;;;;;;;0.40;0.40;;;13.10;99.90;;;;;;5058591;28;20498;-67
2022/11/01 02:44:25;;;;;;;0.40;0.40;;;13.10;99.90;;;;;;5058575;28;20674;-66
2022/11/01 02:47:14;;;;;;;0.40;0.40;;;13.10;99.90;;;;;;5059123;28;20424;-67
2022/11/01 02:50:07;;;;;;;0.40;0.40;;;13.10;99.90;;;;;;5059208;28;20472;-67
2022/11/01 02:52:56;;;;;;;0.30;0.30;;;13.10;99.90;;;;;;5043942;28;20524;-67
2022/11/01 02:55:44;;;;;;;0.40;0.40;;;13.10;99.90;;;;;;5030997;28;20512;-66
2022/11/01 02:58:37;;;;;;;0.40;0.40;;;13.20;99.90;;;;;;5035039;28;20425;-67
2022/11/01 03:01:28;;;;;;;0.40;0.40;;;13.10;99.90;;;;;;5033788;28;20444;-69
2022/11/01 03:04:16;;;;;;;0.40;0.40;;;13.00;99.90;;;;;;5033979;28;20433;-66
2022/11/01 03:07:10;;;;;;;0.40;0.40;;;13.00;99.90;;;;;;5034202;28;20429;-66
2022/11/01 03:09:58;;;;;;;0.40;0.40;;;13.10;99.90;;;;;;5032979;28;20488;-66
2022/11/01 03:12:54;;;;;;;0.40;0.40;;;13.00;99.90;;;;;;5032825;28;20285;-66
2022/11/01 03:15:52;;;;;;;0.40;0.40;;;13.00;99.90;;;;;;5032740;28;20460;-66
2022/11/01 03:18:50;;;;;;;0.40;0.30;;;12.90;99.90;;;;;;5033955;28;20690;-66
2022/11/01 03:21:42;;;;;;;0.40;0.40;;;12.90;99.90;;;;;;5033039;28;20546;-66
2022/11/01 03:24:36;;;;;;;0.40;0.40;;;12.90;99.90;;;;;;5034346;28;20501;-66
2022/11/01 03:27:31;;;;;;;0.40;0.40;;;12.90;99.90;;;;;;5033094;28;20811;-66
2022/11/01 03:30:19;;;;;;;0.40;0.40;;;12.90;99.90;;;;;;5034078;28;20468;-66
2022/11/01 03:33:08;;;;;;;0.40;0.40;;;12.90;99.90;;;;;;5034338;28;20437;-66
2022/11/01 03:36:02;;;;;;;0.40;0.40;;;13.10;99.90;;;;;;5032324;28;20472;-66
2022/11/01 03:38:55;;;;;;;0.40;0.40;;;12.90;99.90;;;;;;5033834;28;20957;-66
2022/11/01 03:41:49;;;;;;;0.40;0.40;;;12.90;99.90;;;;;;5033137;28;20449;-67
2022/11/01 03:44:42;;;;;;;0.40;0.40;;;12.80;99.90;;;;;;5033054;28;20429;-66
2022/11/01 03:47:30;;;;;;;0.40;0.40;;;12.90;99.90;;;;;;5032293;28;20421;-66
2022/11/01 03:50:20;;;;;;;0.40;0.40;;;12.70;99.90;;;;;;5032214;28;20449;-66
2022/11/01 03:53:08;;;;;;;0.40;0.40;;;12.80;99.90;;;;;;5032119;28;20417;-66
2022/11/01 03:55:56;;;;;;;0.40;0.40;;;12.80;99.90;;;;;;5032864;28;20473;-67
2022/11/01 03:58:46;;;;;;;0.40;0.40;;;12.80;99.90;;;;;;5052171;28;20424;-66
2022/11/01 04:01:34;;;;;;;0.40;0.40;;;12.80;99.90;;;;;;5052851;28;20444;-66
2022/11/01 04:04:22;;;;;;;0.40;0.40;;;12.70;99.90;;;;;;5051942;28;20420;-66
2022/11/01 04:07:10;;;;;;;0.60;0.60;;;12.70;99.90;;;;;;5053321;28;21011;-66
2022/11/01 04:09:58;;;;;;;0.40;0.40;;;12.70;99.90;;;;;;5051673;28;20443;-66
2022/11/01 04:12:49;;;;;;;0.40;0.40;;;12.70;99.90;;;;;;5051792;28;20971;-66
2022/11/01 04:21:50;;;;;;;0.40;0.40;;;12.60;99.90;;;;;;5052539;28;20456;-67
2022/11/01 04:24:38;;;;;;;0.40;0.40;;;12.60;99.90;;;;;;5052566;28;20416;-65
2022/11/01 04:27:26;;;;;;;0.40;0.40;;;12.60;99.90;;;;;;5052057;28;20797;-65
2022/11/01 04:30:14;;;;;;;0.40;0.40;;;12.60;99.90;;;;;;5051667;28;20448;-65
2022/11/01 04:33:03;;;;;;;0.40;0.40;;;12.70;99.90;;;;;;5051853;28;20806;-65
2022/11/01 04:35:52;;;;;;;0.40;0.40;;;12.70;99.90;;;;;;5051274;28;20478;-65
2022/11/01 04:38:40;;;;;;;0.43;0.43;;;12.70;99.90;;;;;;5051835;28;20435;-65
2022/11/01 04:41:29;;;;;;;0.40;0.40;;;12.70;99.90;;;;;;5052046;28;20436;-66
2022/11/01 04:44:17;;;;;;;0.40;0.40;;;12.70;99.90;;;;;;5052908;28;20431;-67
2022/11/01 04:47:05;;;;;;;0.40;0.40;;;12.70;99.90;;;;;;5055302;28;20426;-66
2022/11/01 04:49:54;;;;;;;0.40;0.40;;;12.70;99.90;;;;;;5056084;28;20448;-68
2022/11/01 04:52:43;;;;;;;0.40;0.40;;;12.70;99.90;;;;;;5055597;28;20422;-65
2022/11/01 04:55:31;;;;;;;0.60;0.60;;;12.70;99.90;;;;;;5055638;28;20555;-65
2022/11/01 04:58:19;;;;;;;0.30;0.30;;;12.60;99.90;;;;;;5036445;28;20417;-65
2022/11/01 05:01:08;;;;;;;0.40;0.40;;;12.70;99.90;;;;;;5035483;28;20449;-65
2022/11/01 05:03:56;;;;;;;0.40;0.40;;;12.70;99.90;;;;;;5038187;28;20936;-65
2022/11/01 05:06:45;;;;;;;0.40;0.40;;;12.80;99.90;;;;;;5055309;28;20420;-65
2022/11/01 05:09:34;;;;;;;0.40;0.40;;;12.80;99.90;;;;;;5056260;28;20438;-68
2022/11/01 05:12:21;;;;;;;0.40;0.40;;;12.80;99.90;;;;;;5055610;28;20420;-65
2022/11/01 05:15:10;;;;;;;0.83;0.83;;;12.70;99.90;;;;;;5055280;28;20464;-65
2022/11/01 05:17:58;;;;;;;0.40;0.40;;;12.80;99.90;;;;;;5055437;28;20519;-65
2022/11/01 05:20:46;;;;;;;0.50;0.50;;;12.80;99.90;;;;;;5055013;28;20482;-66
2022/11/01 05:23:35;;;;;;;0.50;0.50;;;12.80;99.90;;;;;;5056351;28;20424;-68
2022/11/01 05:26:23;;;;;;;1.90;1.80;;;12.70;99.90;;;;;;5056180;28;20932;-65
2022/11/01 05:29:11;;;;;;;0.40;0.40;;;12.80;99.90;;;;;;5055100;28;20428;-65
2022/11/01 05:32:18;;;;;;;0.40;0.40;;;12.80;99.90;;;;;;5055084;28;20427;-65
2022/11/01 05:35:06;;;;;;;0.40;0.40;;;12.80;99.90;;;;;;5055722;28;20462;-65
2022/11/01 05:37:55;;;;;;;4.00;3.70;;;12.80;99.90;;;;;;5055122;28;20416;-65
2022/11/01 05:40:44;;;;;;;0.40;0.40;;;12.80;99.90;;;;;;5054489;28;20443;-65
2022/11/01 05:43:32;;;;;;;0.40;0.40;;;12.80;99.90;;;;;;5054718;28;20507;-64
2022/11/01 05:46:20;;;;;;;0.40;0.40;;;12.80;99.90;;;;;;5056216;28;20423;-65
2022/11/01 05:49:08;;;;;;;0.40;0.40;;;12.80;99.90;;;;;;5054479;28;20510;-65
2022/11/01 05:51:56;;;;;;;0.40;0.40;;;12.80;99.90;;;;;;5054390;28;20447;-65
2022/11/01 05:54:44;;;;;;;0.40;0.40;;;12.80;99.90;;;;;;5054603;28;20424;-65
2022/11/01 05:57:34;;;;;;;0.40;0.40;;;12.70;99.90;;;;;;5055517;28;20433;-65
2022/11/01 06:00:22;;;;;;;0.50;0.50;;;12.70;99.90;;;;;;5054792;28;20452;-65
2022/11/01 06:03:10;;;;;;;0.40;0.40;;;12.70;99.90;;;;;;5016143;28;20410;-68
2022/11/01 06:05:59;;;;;;;0.40;0.40;;;12.70;99.90;;;;;;5014667;28;20430;-65
2022/11/01 06:08:47;;;;;;;0.30;0.30;;;12.70;99.90;;;;;;5017080;28;20429;-65
2022/11/01 06:11:34;;;;;;;0.40;0.40;;;12.80;99.90;;;;;;5016594;28;20457;-65
2022/11/01 06:14:29;;;;;;;0.30;0.30;;;12.80;99.90;;;;;;5017147;28;20814;-66
2022/11/01 06:17:18;;;;;;;0.40;0.40;;;12.80;99.90;;;;;;5015481;28;20414;-65
2022/11/01 06:20:06;;;;;;;0.40;0.40;;;12.80;99.90;;;;;;5016523;28;20476;-65
2022/11/01 06:22:55;;;;;;;0.40;0.40;;;12.80;99.90;;;;;;5016943;28;20418;-66
2022/11/01 06:25:43;;;;;;;0.40;0.40;;;12.70;99.90;;;;;;5016733;28;20432;-66
2022/11/01 06:28:32;;;;;;;0.60;0.60;;;12.90;99.90;;;;;;5016903;28;20518;-65
2022/11/01 06:31:21;;;;;;;0.40;0.40;;;12.70;99.90;;;;;;5016795;28;20444;-65
2022/11/01 06:34:10;;;;;;;0.40;0.40;;;12.80;99.90;;;;;;5017219;28;20437;-65
2022/11/01 06:36:58;;;;;;;0.40;0.40;;;12.80;99.90;;;;;;5015744;28;20555;-65
2022/11/01 06:39:46;;;;;;;0.40;0.40;;;12.70;99.90;;;;;;5017111;28;20426;-65
2022/11/01 06:42:34;;;;;;;0.40;0.40;;;12.70;99.90;;;;;;5017487;28;20947;-65
2022/11/01 06:45:22;;;;;;;0.40;0.40;;;12.70;99.90;;;;;;5016976;28;21037;-65
2022/11/01 06:48:12;;;;;;;0.40;0.40;;;12.80;99.90;;;;;;5015364;28;20425;-65
2022/11/01 06:51:02;;;;;;;1.07;1.07;;;12.80;99.90;;;;;;5015847;28;20458;-66
2022/11/01 06:53:50;;;;;;;0.40;0.40;;;12.70;99.90;;;;;;5015752;28;20876;-65
2022/11/01 06:56:38;;;;;;;0.50;0.50;;;12.70;99.90;;;;;;5029162;28;20501;-65
2022/11/01 06:59:26;;;;;;;0.40;0.40;;;12.80;99.90;;;;;;5054598;28;20446;-65
2022/11/01 07:02:14;;;;;;;0.40;0.40;;;12.70;99.90;;;;;;5032433;28;20429;-66
2022/11/01 07:05:08;;;;;;;0.40;0.40;;;12.70;99.90;;;;;;5037285;28;20429;-66
2022/11/01 07:07:56;;;;;;;0.40;0.40;;;12.70;99.90;;;;;;5040791;28;20421;-66
2022/11/01 07:10:44;;;;;;;0.30;0.30;;;12.70;99.90;;;;;;5038283;28;20453;-68
2022/11/01 07:13:35;;;;;;;0.30;0.30;;;12.70;99.90;;;;;;5034010;28;20448;-68
2022/11/01 07:16:23;;;;;;;0.40;0.40;;;12.80;99.90;;;;;;5040157;28;20985;-67
2022/11/01 07:19:11;;;;;;;0.40;0.40;;;12.80;99.90;;;;;;5033722;28;20813;-66
2022/11/01 07:22:01;;;;;;;0.30;0.30;;;12.90;99.90;;;;;;5033610;28;20995;-68
2022/11/01 07:24:49;;;;;;;0.40;0.40;;;13.10;99.90;;;;;;5035071;28;21159;-69
2022/11/01 07:27:37;;;;;;;0.30;0.30;;;12.90;99.90;;;;;;5046104;28;20427;-68
2022/11/01 07:30:26;;;;;;;0.40;0.40;;;12.90;99.90;;;;;;5014396;28;20233;-68
2022/11/01 07:33:14;;;;;;;0.30;0.30;;;13.00;99.90;;;;;;5013839;28;20842;-67
2022/11/01 07:36:02;;;;;;;0.40;0.40;;;13.00;99.90;;;;;;5014395;28;20838;-67
2022/11/01 07:38:52;;;;;;;0.37;0.37;;;13.00;99.90;;;;;;5015287;28;20430;-69
2022/11/01 07:41:40;;;;;;;0.40;0.40;;;13.30;99.90;;;;;;5013709;28;20364;-66
2022/11/01 07:44:28;;;;;;;0.40;0.40;;;13.00;99.90;;;;;;5014876;28;20456;-67
2022/11/01 07:47:16;;;;;;;0.40;0.40;;;13.00;99.90;;;;;;5014310;28;20548;-67
2022/11/01 07:50:06;;;;;;;1.07;1.07;;;13.10;99.90;;;;;;5014177;28;20441;-67
2022/11/01 07:53:01;;;;;;;0.50;0.50;;;13.10;99.90;;;;;;5014788;28;20422;-67
2022/11/01 07:55:50;;;;;;;1.63;1.63;;;13.20;99.90;;;;;;5014211;28;20429;-67
2022/11/01 07:58:42;;;;;;;0.40;0.40;;;13.20;99.90;;;;;;5014299;28;20426;-66
2022/11/01 08:01:30;;;;;;;0.30;0.30;;;13.30;99.90;;;;;;5013815;28;20831;-68
2022/11/01 08:04:18;;;;;;;0.40;0.40;;;13.30;99.90;;;;;;5040243;28;20436;-67
2022/11/01 08:07:06;;;;;;;0.40;0.40;;;13.40;99.90;;;;;;5033067;28;20431;-68
2022/11/01 08:09:54;;;;;;;1.70;1.60;;;13.40;99.90;;;;;;5032536;28;20482;-68
2022/11/01 08:12:44;;;;;;;0.40;0.40;;;13.50;99.90;;;;;;5032860;28;20447;-68
2022/11/01 08:15:32;;;;;;;0.40;0.40;;;13.50;99.90;;;;;;5032976;28;20457;-68
2022/11/01 08:18:23;;;;;;;0.37;0.37;;;13.50;99.90;;;;;;5032407;28;20425;-68
2022/11/01 08:21:17;;;;;;;0.40;0.40;;;13.50;99.90;;;;;;5031084;28;21053;-68
2022/11/01 08:24:05;;;;;;;1.37;1.37;;;13.60;99.90;;;;;;5033786;28;20429;-67
2022/11/01 08:26:53;;;;;;;0.40;0.40;;;13.60;99.90;;;;;;5033048;28;20430;-67
2022/11/01 08:29:43;;;;;;;0.40;0.40;;;13.80;99.90;;;;;;5032799;28;20892;-68
2022/11/01 08:32:31;;;;;;;0.40;0.40;;;13.80;99.90;;;;;;5041505;28;20418;-68
2022/11/01 08:35:19;;;;;;;0.40;0.40;;;13.80;99.90;;;;;;5023166;28;20959;-67
2022/11/01 08:38:08;;;;;;;0.40;0.40;;;13.90;99.90;;;;;;5034491;28;20468;-67
2022/11/01 08:40:56;;;;;;;0.40;0.40;;;14.00;99.90;;;;;;5032382;28;20210;-68
2022/11/01 08:43:44;;;;;;;0.40;0.40;;;14.00;99.90;;;;;;5048287;28;20603;-68
2022/11/01 08:46:34;;;;;;;0.40;0.40;;;14.10;99.90;;;;;;5049260;28;20425;-67
2022/11/01 08:49:22;;;;;;;0.40;0.40;;;14.10;99.90;;;;;;5032508;28;20512;-68
2022/11/01 08:52:10;;;;;;;0.40;0.40;;;14.10;99.90;;;;;;5029601;28;20464;-68
2022/11/01 08:54:58;;;;;;;0.40;0.40;;;14.20;99.90;;;;;;5029187;28;20455;-67
2022/11/01 08:57:46;;;;;;;0.40;0.40;;;14.30;99.90;;;;;;5042309;28;20976;-67
2022/11/01 09:00:35;;;;;;;0.40;0.40;;;14.30;99.90;;;;;;5035076;28;20221;-67
2022/11/01 09:03:24;;;;;;;0.40;0.40;;;14.40;99.90;;;;;;5027951;28;20773;-68
2022/11/01 09:06:13;;;;;;;0.40;0.40;;;14.50;99.90;;;;;;5031885;28;20206;-68
2022/11/01 09:09:01;;;;;;;0.40;0.40;;;14.50;99.90;;;;;;5031434;28;20437;-69
2022/11/01 09:11:49;;;;;;;0.40;0.40;;;14.60;99.90;;;;;;5032198;28;20232;-70
2022/11/01 09:14:37;;;;;;;0.40;0.40;;;14.60;99.90;;;;;;5031227;28;20205;-69
2022/11/01 09:17:26;;;;;;;0.40;0.40;;;14.60;99.90;;;;;;5031982;28;20222;-68
2022/11/01 09:20:16;;;;;;;0.40;0.40;;;14.60;99.90;;;;;;5013076;28;20978;-68
2022/11/01 09:23:04;;;;;;;0.40;0.40;;;14.80;99.90;;;;;;5013896;28;20290;-71
2022/11/01 09:25:53;;;;;;;0.40;0.40;;;14.70;99.90;;;;;;5022509;28;20206;-72
2022/11/01 09:28:43;;;;;;;0.40;0.40;;;14.80;99.90;;;;;;5039905;28;20204;-68
2022/11/01 09:31:32;;;;;;;0.40;0.40;;;14.90;99.90;;;;;;5043144;28;20229;-70
2022/11/01 09:34:22;;;;;;;0.40;0.40;;;14.90;99.90;;;;;;5050626;28;20270;-67
2022/11/01 09:37:12;;;;;;;0.60;0.60;;;14.90;99.90;;;;;;5053249;28;20468;-68
2022/11/01 09:40:00;;;;;;;0.40;0.40;;;14.90;99.90;;;;;;5045285;28;20222;-68
2022/11/01 09:42:48;;;;;;;0.40;0.40;;;14.90;99.90;;;;;;5047579;28;20213;-67
2022/11/01 09:45:37;;;;;;;0.40;0.40;;;15.00;99.90;;;;;;5030346;28;20204;-68
2022/11/01 09:48:27;;;;;;;0.40;0.40;;;14.90;99.90;;;;;;5054250;28;20208;-67
2022/11/01 09:51:20;;;;;;;0.40;0.40;;;14.90;99.90;;;;;;5055691;28;20701;-67
2022/11/01 09:54:11;;;;;;;0.40;0.40;;;15.00;99.90;;;;;;5056418;28;20302;-67
2022/11/01 09:57:10;;;;;;;0.40;0.40;;;15.00;99.90;;;;;;5037544;28;20194;-67
2022/11/01 10:00:05;;;;;;;0.30;0.30;;;15.00;99.90;;;;;;5035500;28;20221;-67
2022/11/01 10:03:32;;;;;;;0.40;0.40;;;15.00;99.90;;;;;;5035618;28;20587;-68
2022/11/01 10:06:23;;;;;;;0.40;0.40;;;15.00;99.90;;;;;;5035258;28;20210;-68
2022/11/01 10:09:28;;;;;;;0.40;0.40;;;15.10;99.90;;;;;;5033776;28;20246;-67
2022/11/01 10:12:30;;;;;;;0.57;0.57;;;15.10;99.90;;;;;;5035744;28;20248;-68
2022/11/01 10:15:31;;;;;;;0.40;0.40;;;15.10;99.90;;;;;;5035578;28;20197;-68
2022/11/01 10:18:27;;;;;;;0.40;0.40;;;15.10;99.90;;;;;;5036019;28;20217;-67
2022/11/01 10:21:16;;;;;;;0.40;0.40;;;15.10;99.90;;;;;;5036702;28;20794;-67
2022/11/01 10:24:07;;;;;;;0.40;0.40;;;15.20;99.90;;;;;;5041482;28;20206;-68
2022/11/01 10:27:04;;;;;;;0.40;0.40;;;15.20;99.90;;;;;;5045134;28;20221;-67
2022/11/01 10:29:58;;;;;;;0.30;0.30;;;15.30;99.90;;;;;;5050622;28;20204;-67
2022/11/01 10:32:52;;;;;;;0.40;0.40;;;15.30;99.90;;;;;;5050411;28;20202;-67
2022/11/01 10:35:44;;;;;;;0.30;0.30;;;15.40;99.90;;;;;;5045707;28;20206;-67
2022/11/01 10:38:37;;;;;;;0.40;0.40;;;15.40;99.90;;;;;;5045154;28;20218;-66
2022/11/01 10:41:48;;;;;;;0.50;0.50;;;15.60;99.90;;;;;;5050366;28;20239;-68
2022/11/01 10:44:41;;;;;;;0.40;0.40;;;15.70;99.90;;;;;;5050900;28;20212;-67
2022/11/01 10:47:29;;;;;;;0.40;0.40;;;15.80;99.90;;;;;;5049933;28;20204;-68
2022/11/01 10:50:20;;;;;;;0.40;0.40;;;16.00;99.90;;;;;;5048341;28;20285;-69
2022/11/01 10:53:11;;;;;;;0.35;0.35;;;16.00;99.90;;;;;;5050056;28;20261;-69
2022/11/01 10:56:04;;;;;;;0.40;0.40;;;16.10;99.90;;;;;;5033033;28;20198;-68
2022/11/01 10:59:00;;;;;;;0.40;0.40;;;16.10;99.90;;;;;;5033286;28;20243;-68
2022/11/01 11:01:51;;;;;;;0.40;0.40;;;16.20;99.90;;;;;;5032762;28;20222;-68
2022/11/01 11:04:40;;;;;;;0.30;0.30;;;16.30;99.90;;;;;;5048772;28;20204;-69
2022/11/01 11:07:31;;;;;;;0.40;0.40;;;16.50;99.90;;;;;;5050384;28;20205;-68
2022/11/01 11:10:21;;;;;;;0.40;0.40;;;16.50;99.90;;;;;;5054168;28;20291;-67
2022/11/01 11:13:16;;;;;;;0.40;0.40;;;16.50;99.90;;;;;;5039405;28;20209;-67
2022/11/01 11:16:04;;;;;;;0.40;0.40;;;16.50;99.90;;;;;;5032485;28;20299;-65
2022/11/01 11:19:15;;;;;;;0.30;0.30;;;16.50;99.90;;;;;;5053560;28;20319;-68
2022/11/01 11:22:07;;;;;;;0.40;0.40;;;16.50;99.90;;;;;;5032396;28;20209;-68
2022/11/01 11:24:58;;;;;;;0.43;0.43;;;16.50;99.90;;;;;;5029950;28;20208;-68
2022/11/01 11:27:48;;;;;;;0.40;0.40;;;16.50;99.90;;;;;;5033576;28;20220;-69
2022/11/01 11:30:36;;;;;;;0.40;0.40;;;16.50;99.90;;;;;;5012201;28;20705;-69
2022/11/01 11:33:24;;;;;;;0.40;0.40;;;16.60;99.90;;;;;;5012153;28;20230;-68
2022/11/01 11:36:14;;;;;;;0.30;0.30;;;16.50;99.90;;;;;;5012436;28;20214;-69
2022/11/01 11:39:03;;;;;;;0.40;0.40;;;16.50;99.90;;;;;;5011373;28;20226;-68
2022/11/01 11:41:51;;;;;;;0.30;0.30;;;16.50;99.90;;;;;;5025293;28;20876;-67
2022/11/01 11:44:42;;;;;;;0.40;0.40;;;16.50;99.90;;;;;;5032548;28;20276;-69
2022/11/01 11:47:36;;;;;;;0.40;0.40;;;16.40;99.90;;;;;;5050858;28;20202;-68
2022/11/01 11:50:31;;;;;;;0.40;0.40;;;16.50;99.90;;;;;;5051768;28;20724;-67
2022/11/01 11:53:23;;;;;;;1.60;0.83;;;16.50;99.90;;;;;;5051324;28;20671;-67
2022/11/01 11:56:12;;;;;;;0.40;0.40;;;16.50;99.90;;;;;;5052089;28;20205;-69
2022/11/01 11:59:05;;;;;;;0.40;0.40;;;16.60;99.90;;;;;;5052863;28;20220;-67
2022/11/01 12:02:02;;;;;;;0.40;0.40;;;16.50;99.90;;;;;;5052086;28;20236;-67
2022/11/01 12:04:56;;;;;;;0.40;0.40;;;16.60;99.90;;;;;;5052011;28;20652;-67
2022/11/01 12:07:47;;;;;;;0.40;0.40;;;16.60;99.90;;;;;;5051868;28;20203;-68
2022/11/01 12:10:39;;;;;;;0.43;0.43;;;16.70;99.90;;;;;;5052298;28;20280;-67
2022/11/01 12:13:31;;;;;;;15.68;14.60;;;16.70;99.90;;;;;;5052962;28;20201;-68
2022/11/01 12:16:23;;;;;;;0.40;0.40;;;16.80;99.90;;;;;;5053036;28;20296;-66
2022/11/01 12:19:24;;;;;;;0.40;0.40;;;16.90;99.90;;;;;;5030358;28;20230;-66
2022/11/01 12:22:12;;;;;;;0.30;0.30;;;16.90;99.90;;;;;;5031786;28;20206;-67
2022/11/01 12:25:05;;;;;;;0.40;0.40;;;17.00;99.90;;;;;;5031584;28;20206;-67
2022/11/01 12:28:00;;;;;;;0.40;0.40;;;17.00;99.90;;;;;;5031844;28;20209;-67
2022/11/01 12:30:54;;;;;;;0.40;0.40;;;17.10;99.90;;;;;;5026479;28;20601;-67
2022/11/01 12:33:48;;;;;;;1.98;0.85;;;17.10;99.90;;;;;;5052322;28;20251;-66
2022/11/01 12:36:43;;;;;;;0.40;0.40;;;17.20;99.90;;;;;;5052266;28;20579;-66
2022/11/01 12:39:40;;;;;;;0.40;0.40;;;17.30;99.90;;;;;;5051052;28;20857;-67
2022/11/01 12:42:32;;;;;;;1.10;1.10;;;17.20;99.90;;;;;;5052129;28;20212;-67
2022/11/01 12:45:28;;;;;;;0.40;0.40;;;17.30;99.90;;;;;;5051909;28;20645;-67
2022/11/01 12:48:21;;;;;;;0.50;0.50;;;17.30;99.90;;;;;;5052983;28;20198;-67
2022/11/01 12:51:18;;;;;;;0.40;0.40;;;17.30;99.90;;;;;;5051977;28;20260;-67
2022/11/01 12:54:11;;;;;;;0.40;0.40;;;17.30;99.90;;;;;;5051267;28;20580;-67
2022/11/01 12:57:00;;;;;;;0.40;0.40;;;17.30;99.90;;;;;;5051872;28;20201;-66
2022/11/01 12:59:50;;;;;;;0.40;0.40;;;17.40;99.90;;;;;;5052019;28;20716;-66
2022/11/01 13:02:53;;;;;;;0.30;0.30;;;17.40;99.90;;;;;;5053075;28;20279;-66
2022/11/01 13:05:50;;;;;;;0.30;0.30;;;17.40;99.90;;;;;;5013041;28;20695;-66
2022/11/01 13:08:47;;;;;;;0.30;0.30;;;17.50;99.90;;;;;;5014747;28;20714;-67
2022/11/01 13:11:44;;;;;;;0.40;0.40;;;17.50;99.90;;;;;;5016488;28;20233;-66
2022/11/01 13:14:43;;;;;;;0.50;0.50;;;17.70;99.90;;;;;;5016463;28;20203;-67
2022/11/01 13:17:39;;;;;;;0.40;0.40;;;17.60;99.90;;;;;;5093686;22;20305;-75
2022/11/01 13:20:44;;;;;;;0.40;0.40;;;17.70;99.90;;;;;;5094495;28;20215;-77
2022/11/01 13:23:37;;;;;;;0.40;0.40;;;17.60;99.90;;;;;;5094227;28;20203;-76
2022/11/01 13:26:29;;;;;;;0.30;0.30;;;17.50;99.90;;;;;;5092821;28;20224;-74
2022/11/01 13:29:23;;;;;;;0.40;0.40;;;17.50;99.90;;;;;;5093524;28;20241;-72
2022/11/01 13:32:19;;;;;;;0.40;0.40;;;17.40;99.90;;;;;;5093354;28;20208;-73
2022/11/01 13:35:33;;;;;;;0.40;0.40;;;17.50;99.90;;;;;;5094317;28;20349;-72
2022/11/01 13:38:33;;;;;;;0.40;0.40;;;17.40;99.90;;;;;;5095392;28;20583;-75
2022/11/01 13:41:28;;;;;;;0.40;0.40;;;17.70;99.90;;;;;;5095969;28;20613;-76
2022/11/01 13:44:21;;;;;;;1.13;1.13;;;17.70;99.90;;;;;;5095037;28;20589;-75
2022/11/01 13:47:25;;;;;;;0.40;0.40;;;17.70;99.90;;;;;;5093701;28;20726;-77
2022/11/01 13:50:46;;;;;;;0.40;0.40;;;17.70;99.90;;;;;;5094162;28;20576;-69
2022/11/01 13:53:42;;;;;;;0.40;0.40;;;17.70;99.90;;;;;;5093480;28;20286;-69
2022/11/01 13:56:33;;;;;;;0.40;0.40;;;17.60;99.90;;;;;;5073354;28;20224;-69
2022/11/01 13:59:43;;;;;;;0.40;0.40;;;17.60;99.90;;;;;;5072737;28;20227;-70
2022/11/01 14:02:52;;;;;;;0.40;0.40;;;17.70;99.90;;;;;;5073080;28;20232;-70
2022/11/01 14:05:40;;;;;;;0.40;0.40;;;17.70;99.90;;;;;;5072973;28;20606;-69
2022/11/01 14:08:35;;;;;;;0.40;0.40;;;17.80;99.90;;;;;;5089397;28;20204;-70
2022/11/01 14:11:45;;;;;;;0.40;0.40;;;17.90;99.90;;;;;;5092853;28;20200;-69
2022/11/01 14:14:50;;;;;;;0.40;0.40;;;18.10;99.90;;;;;;5089572;28;20427;-67
2022/11/01 14:17:54;;;;;;;0.40;0.40;;;18.20;99.90;;;;;;5086177;28;20450;-69
2022/11/01 14:20:49;;;;;;;0.40;0.40;;;18.50;99.90;;;;;;5092062;28;20222;-64
2022/11/01 14:23:47;;;;;;;0.40;0.40;;;19.20;99.90;;;;;;5093137;28;20200;-66
2022/11/01 14:26:52;;;;;;;0.40;0.40;;;19.90;99.90;;;;;;5093560;28;20245;-66
2022/11/01 14:29:41;;;;;;;0.40;0.40;;;20.50;99.90;;;;;;5086964;28;20217;-67
2022/11/01 14:32:31;;;;;;;0.52;0.52;;;21.00;99.90;;;;;;5075930;28;20203;-67
2022/11/01 14:35:25;;;;;;;0.95;0.95;;;21.30;99.90;;;;;;5093893;28;20227;-68
2022/11/01 14:38:17;;;;;;;0.40;0.40;;;21.60;99.90;;;;;;5094228;28;20206;-66
2022/11/01 14:41:07;;;;;;;0.60;0.60;;;21.80;99.90;;;;;;5087723;28;20212;-67
2022/11/01 14:44:00;;;;;;;0.50;0.50;;;21.90;99.90;;;;;;5093449;28;20231;-67
2022/11/01 14:46:57;;;;;;;0.65;0.65;;;22.00;99.90;;;;;;5093848;28;20621;-67
2022/11/01 14:49:47;;;;;;;0.40;0.40;;;22.10;99.90;;;;;;5093310;28;20206;-66
2022/11/01 14:52:41;;;;;;;0.30;0.30;;;22.10;99.90;;;;;;5093021;28;20208;-65
2022/11/01 14:55:35;;;;;;;0.40;0.40;;;22.10;99.90;;;;;;5093364;28;20212;-65
2022/11/01 14:58:24;;;;;;;0.75;0.70;;;22.10;99.90;;;;;;5093823;28;20204;-66
2022/11/01 15:01:15;;;;;;;0.40;0.40;;;22.10;99.90;;;;;;5093154;28;20227;-66
2022/11/01 15:04:05;;;;;;;0.40;0.40;;;22.10;99.90;;;;;;5092553;28;20207;-66